sensor_id;sensor_type;location;lat;lon;timestamp;P1;durP1;ratioP1;P2;durP2;ratioP2
16543;SDS011;8384;47.996;7.786;2023-08-12T00:00:47;2.67;;;2.47;;
16543;SDS011;8384;47.996;7.786;2023-08-12T00:03:13;3.83;;;2.40;;
16543;SDS011;8384;47.996;7.786;2023-08-12T00:05:38;2.97;;;2.77;;
16543;SDS011;8384;47.996;7.786;2023-08-12T00:08:05;4.77;;;2.50;;
16543;SDS011;8384;47.996;7.786;2023-08-12T00:10:30;2.70;;;2.50;;
16543;SDS011;8384;47.996;7.786;2023-08-12T00:12:56;2.70;;;2.50;;
16543;SDS011;8384;47.996;7.786;2023-08-12T00:15:21;2.83;;;2.63;;
16543;SDS011;8384;47.996;7.786;2023-08-12T00:17:46;2.33;;;2.13;;
16543;SDS011;8384;47.996;7.786;2023-08-12T00:20:12;2.67;;;2.40;;
16543;SDS011;8384;47.996;7.786;2023-08-12T00:22:37;3.13;;;2.80;;
16543;SDS011;8384;47.996;7.786;2023-08-12T00:25:03;2.13;;;1.93;;
16543;SDS011;8384;47.996;7.786;2023-08-12T00:27:29;2.37;;;2.27;;
16543;SDS011;8384;47.996;7.786;2023-08-12T00:29:55;2.70;;;2.50;;
16543;SDS011;8384;47.996;7.786;2023-08-12T00:32:20;3.97;;;2.60;;
16543;SDS011;8384;47.996;7.786;2023-08-12T00:34:45;2.20;;;2.10;;
16543;SDS011;8384;47.996;7.786;2023-08-12T00:37:10;2.63;;;2.40;;
16543;SDS011;8384;47.996;7.786;2023-08-12T00:39:36;4.07;;;2.23;;
16543;SDS011;8384;47.996;7.786;2023-08-12T00:42:01;2.60;;;2.40;;
16543;SDS011;8384;47.996;7.786;2023-08-12T00:44:26;3.47;;;2.40;;
16543;SDS011;8384;47.996;7.786;2023-08-12T00:46:51;2.47;;;2.27;;
16543;SDS011;8384;47.996;7.786;2023-08-12T00:49:17;3.37;;;2.50;;
16543;SDS011;8384;47.996;7.786;2023-08-12T00:51:43;2.20;;;2.00;;
16543;SDS011;8384;47.996;7.786;2023-08-12T00:54:11;2.50;;;2.20;;
16543;SDS011;8384;47.996;7.786;2023-08-12T00:56:38;2.30;;;2.07;;
16543;SDS011;8384;47.996;7.786;2023-08-12T00:59:04;2.50;;;2.30;;
16543;SDS011;8384;47.996;7.786;2023-08-12T01:01:32;3.10;;;2.23;;
16543;SDS011;8384;47.996;7.786;2023-08-12T01:03:57;2.90;;;2.30;;
16543;SDS011;8384;47.996;7.786;2023-08-12T01:06:23;4.17;;;2.43;;
16543;SDS011;8384;47.996;7.786;2023-08-12T01:08:48;3.73;;;2.60;;
16543;SDS011;8384;47.996;7.786;2023-08-12T01:11:15;2.40;;;2.20;;
16543;SDS011;8384;47.996;7.786;2023-08-12T01:16:44;2.77;;;2.57;;
16543;SDS011;8384;47.996;7.786;2023-08-12T01:19:16;2.63;;;2.43;;
16543;SDS011;8384;47.996;7.786;2023-08-12T01:21:59;2.73;;;2.37;;
16543;SDS011;8384;47.996;7.786;2023-08-12T01:24:26;2.70;;;2.50;;
16543;SDS011;8384;47.996;7.786;2023-08-12T01:26:51;3.67;;;3.10;;
16543;SDS011;8384;47.996;7.786;2023-08-12T01:29:17;2.50;;;2.30;;
16543;SDS011;8384;47.996;7.786;2023-08-12T01:31:45;2.63;;;2.43;;
16543;SDS011;8384;47.996;7.786;2023-08-12T01:34:27;2.50;;;2.30;;
16543;SDS011;8384;47.996;7.786;2023-08-12T01:37:01;3.30;;;3.00;;
16543;SDS011;8384;47.996;7.786;2023-08-12T01:39:31;2.97;;;2.67;;
16543;SDS011;8384;47.996;7.786;2023-08-12T01:41:58;3.40;;;2.60;;
16543;SDS011;8384;47.996;7.786;2023-08-12T01:44:24;2.83;;;2.63;;
16543;SDS011;8384;47.996;7.786;2023-08-12T01:46:50;2.93;;;2.70;;
16543;SDS011;8384;47.996;7.786;2023-08-12T01:49:15;2.90;;;2.70;;
16543;SDS011;8384;47.996;7.786;2023-08-12T01:51:40;2.73;;;2.53;;
16543;SDS011;8384;47.996;7.786;2023-08-12T01:54:06;2.93;;;2.70;;
16543;SDS011;8384;47.996;7.786;2023-08-12T01:56:31;2.83;;;2.50;;
16543;SDS011;8384;47.996;7.786;2023-08-12T01:58:56;2.77;;;2.57;;
16543;SDS011;8384;47.996;7.786;2023-08-12T02:01:21;3.23;;;2.33;;
16543;SDS011;8384;47.996;7.786;2023-08-12T02:03:47;2.67;;;2.47;;
16543;SDS011;8384;47.996;7.786;2023-08-12T02:06:12;4.30;;;2.53;;
16543;SDS011;8384;47.996;7.786;2023-08-12T02:08:37;2.70;;;2.50;;
16543;SDS011;8384;47.996;7.786;2023-08-12T02:11:02;3.20;;;2.90;;
16543;SDS011;8384;47.996;7.786;2023-08-12T02:13:28;3.03;;;2.77;;
16543;SDS011;8384;47.996;7.786;2023-08-12T02:15:53;2.53;;;2.33;;
16543;SDS011;8384;47.996;7.786;2023-08-12T02:18:18;2.93;;;2.60;;
16543;SDS011;8384;47.996;7.786;2023-08-12T02:20:43;3.10;;;2.70;;
16543;SDS011;8384;47.996;7.786;2023-08-12T02:23:12;3.43;;;2.70;;
16543;SDS011;8384;47.996;7.786;2023-08-12T02:25:38;3.43;;;2.60;;
16543;SDS011;8384;47.996;7.786;2023-08-12T02:28:03;2.90;;;2.50;;
16543;SDS011;8384;47.996;7.786;2023-08-12T02:30:29;3.17;;;2.87;;
16543;SDS011;8384;47.996;7.786;2023-08-12T02:32:55;2.80;;;2.60;;
16543;SDS011;8384;47.996;7.786;2023-08-12T02:35:20;2.80;;;2.60;;
16543;SDS011;8384;47.996;7.786;2023-08-12T02:37:45;3.73;;;2.67;;
16543;SDS011;8384;47.996;7.786;2023-08-12T02:40:13;2.77;;;2.57;;
16543;SDS011;8384;47.996;7.786;2023-08-12T02:42:38;3.23;;;2.60;;
16543;SDS011;8384;47.996;7.786;2023-08-12T02:45:03;3.00;;;2.80;;
16543;SDS011;8384;47.996;7.786;2023-08-12T02:47:29;3.10;;;2.20;;
16543;SDS011;8384;47.996;7.786;2023-08-12T02:49:54;3.80;;;2.73;;
16543;SDS011;8384;47.996;7.786;2023-08-12T02:52:19;2.90;;;2.70;;
16543;SDS011;8384;47.996;7.786;2023-08-12T02:54:45;3.00;;;2.80;;
16543;SDS011;8384;47.996;7.786;2023-08-12T02:57:10;3.07;;;2.60;;
16543;SDS011;8384;47.996;7.786;2023-08-12T02:59:35;2.80;;;2.60;;
16543;SDS011;8384;47.996;7.786;2023-08-12T03:02:00;3.07;;;2.87;;
16543;SDS011;8384;47.996;7.786;2023-08-12T03:04:26;2.97;;;2.70;;
16543;SDS011;8384;47.996;7.786;2023-08-12T03:06:51;3.10;;;2.80;;
16543;SDS011;8384;47.996;7.786;2023-08-12T03:09:17;3.07;;;2.80;;
16543;SDS011;8384;47.996;7.786;2023-08-12T03:11:43;3.23;;;2.90;;
16543;SDS011;8384;47.996;7.786;2023-08-12T03:14:08;3.67;;;2.97;;
16543;SDS011;8384;47.996;7.786;2023-08-12T03:16:34;3.17;;;2.90;;
16543;SDS011;8384;47.996;7.786;2023-08-12T03:19:00;4.07;;;3.13;;
16543;SDS011;8384;47.996;7.786;2023-08-12T03:21:25;2.90;;;2.60;;
16543;SDS011;8384;47.996;7.786;2023-08-12T03:23:51;3.43;;;3.10;;
16543;SDS011;8384;47.996;7.786;2023-08-12T03:26:16;3.30;;;3.10;;
16543;SDS011;8384;47.996;7.786;2023-08-12T03:28:41;3.53;;;3.33;;
16543;SDS011;8384;47.996;7.786;2023-08-12T03:31:06;3.30;;;3.00;;
16543;SDS011;8384;47.996;7.786;2023-08-12T03:33:32;3.40;;;2.80;;
16543;SDS011;8384;47.996;7.786;2023-08-12T03:35:58;3.57;;;3.27;;
16543;SDS011;8384;47.996;7.786;2023-08-12T03:38:24;3.37;;;3.07;;
16543;SDS011;8384;47.996;7.786;2023-08-12T03:40:49;4.57;;;3.13;;
16543;SDS011;8384;47.996;7.786;2023-08-12T03:43:15;3.33;;;3.03;;
16543;SDS011;8384;47.996;7.786;2023-08-12T03:45:43;3.50;;;3.20;;
16543;SDS011;8384;47.996;7.786;2023-08-12T03:48:10;3.33;;;3.00;;
16543;SDS011;8384;47.996;7.786;2023-08-12T03:50:36;3.30;;;2.93;;
16543;SDS011;8384;47.996;7.786;2023-08-12T03:53:03;3.67;;;2.80;;
16543;SDS011;8384;47.996;7.786;2023-08-12T03:55:32;4.07;;;3.00;;
16543;SDS011;8384;47.996;7.786;2023-08-12T03:57:58;3.23;;;2.67;;
16543;SDS011;8384;47.996;7.786;2023-08-12T04:00:24;3.33;;;3.00;;
16543;SDS011;8384;47.996;7.786;2023-08-12T04:02:50;3.90;;;2.90;;
16543;SDS011;8384;47.996;7.786;2023-08-12T04:05:15;3.33;;;2.60;;
16543;SDS011;8384;47.996;7.786;2023-08-12T04:07:40;2.83;;;2.63;;
16543;SDS011;8384;47.996;7.786;2023-08-12T04:10:06;3.13;;;2.83;;
16543;SDS011;8384;47.996;7.786;2023-08-12T04:12:31;3.13;;;2.83;;
16543;SDS011;8384;47.996;7.786;2023-08-12T04:14:57;2.83;;;2.53;;
16543;SDS011;8384;47.996;7.786;2023-08-12T04:17:22;2.80;;;2.60;;
16543;SDS011;8384;47.996;7.786;2023-08-12T04:19:47;2.90;;;2.70;;
16543;SDS011;8384;47.996;7.786;2023-08-12T04:22:13;2.77;;;2.50;;
16543;SDS011;8384;47.996;7.786;2023-08-12T04:24:38;2.73;;;2.53;;
16543;SDS011;8384;47.996;7.786;2023-08-12T04:27:03;2.83;;;2.63;;
16543;SDS011;8384;47.996;7.786;2023-08-12T04:29:29;3.17;;;2.80;;
16543;SDS011;8384;47.996;7.786;2023-08-12T04:31:54;3.10;;;2.90;;
16543;SDS011;8384;47.996;7.786;2023-08-12T04:34:19;2.87;;;2.67;;
16543;SDS011;8384;47.996;7.786;2023-08-12T04:36:44;4.20;;;3.00;;
16543;SDS011;8384;47.996;7.786;2023-08-12T04:39:10;2.80;;;2.60;;
16543;SDS011;8384;47.996;7.786;2023-08-12T04:41:35;3.10;;;2.70;;
16543;SDS011;8384;47.996;7.786;2023-08-12T04:44:03;4.27;;;2.90;;
16543;SDS011;8384;47.996;7.786;2023-08-12T04:46:29;3.50;;;2.67;;
16543;SDS011;8384;47.996;7.786;2023-08-12T04:48:54;3.10;;;2.60;;
16543;SDS011;8384;47.996;7.786;2023-08-12T04:51:19;2.80;;;2.60;;
16543;SDS011;8384;47.996;7.786;2023-08-12T04:53:45;2.83;;;2.50;;
16543;SDS011;8384;47.996;7.786;2023-08-12T04:56:10;2.97;;;2.67;;
16543;SDS011;8384;47.996;7.786;2023-08-12T04:58:35;7.53;;;2.80;;
16543;SDS011;8384;47.996;7.786;2023-08-12T05:01:00;3.10;;;2.80;;
16543;SDS011;8384;47.996;7.786;2023-08-12T05:03:26;2.50;;;2.30;;
16543;SDS011;8384;47.996;7.786;2023-08-12T05:05:52;2.93;;;2.73;;
16543;SDS011;8384;47.996;7.786;2023-08-12T05:08:18;2.77;;;2.50;;
16543;SDS011;8384;47.996;7.786;2023-08-12T05:10:43;2.97;;;2.77;;
16543;SDS011;8384;47.996;7.786;2023-08-12T05:13:11;3.73;;;2.93;;
16543;SDS011;8384;47.996;7.786;2023-08-12T05:15:36;3.03;;;2.80;;
16543;SDS011;8384;47.996;7.786;2023-08-12T05:18:02;3.70;;;2.83;;
16543;SDS011;8384;47.996;7.786;2023-08-12T05:20:27;2.80;;;2.60;;
16543;SDS011;8384;47.996;7.786;2023-08-12T05:22:53;3.00;;;2.70;;
16543;SDS011;8384;47.996;7.786;2023-08-12T05:25:18;4.77;;;2.93;;
16543;SDS011;8384;47.996;7.786;2023-08-12T05:27:43;3.20;;;2.90;;
16543;SDS011;8384;47.996;7.786;2023-08-12T05:30:09;3.53;;;3.00;;
16543;SDS011;8384;47.996;7.786;2023-08-12T05:32:34;3.43;;;3.13;;
16543;SDS011;8384;47.996;7.786;2023-08-12T05:35:00;3.67;;;2.67;;
16543;SDS011;8384;47.996;7.786;2023-08-12T05:37:25;4.00;;;3.70;;
16543;SDS011;8384;47.996;7.786;2023-08-12T05:39:50;4.50;;;3.23;;
16543;SDS011;8384;47.996;7.786;2023-08-12T05:42:15;3.80;;;2.80;;
16543;SDS011;8384;47.996;7.786;2023-08-12T05:44:41;2.90;;;2.60;;
16543;SDS011;8384;47.996;7.786;2023-08-12T05:47:07;3.10;;;2.90;;
16543;SDS011;8384;47.996;7.786;2023-08-12T05:49:32;2.93;;;2.73;;
16543;SDS011;8384;47.996;7.786;2023-08-12T05:51:57;4.33;;;3.00;;
16543;SDS011;8384;47.996;7.786;2023-08-12T05:54:23;5.83;;;3.23;;
16543;SDS011;8384;47.996;7.786;2023-08-12T05:56:48;3.60;;;3.30;;
16543;SDS011;8384;47.996;7.786;2023-08-12T05:59:13;4.10;;;3.80;;
16543;SDS011;8384;47.996;7.786;2023-08-12T06:01:38;3.70;;;3.40;;
16543;SDS011;8384;47.996;7.786;2023-08-12T06:04:04;4.50;;;3.30;;
16543;SDS011;8384;47.996;7.786;2023-08-12T06:06:29;5.10;;;3.13;;
16543;SDS011;8384;47.996;7.786;2023-08-12T06:08:54;4.00;;;3.70;;
16543;SDS011;8384;47.996;7.786;2023-08-12T06:11:19;3.50;;;3.20;;
16543;SDS011;8384;47.996;7.786;2023-08-12T06:13:45;3.27;;;2.97;;
16543;SDS011;8384;47.996;7.786;2023-08-12T06:16:10;3.50;;;3.20;;
16543;SDS011;8384;47.996;7.786;2023-08-12T06:18:35;3.60;;;3.30;;
16543;SDS011;8384;47.996;7.786;2023-08-12T06:21:00;4.03;;;3.60;;
16543;SDS011;8384;47.996;7.786;2023-08-12T06:23:26;4.17;;;3.30;;
16543;SDS011;8384;47.996;7.786;2023-08-12T06:25:51;3.13;;;2.80;;
16543;SDS011;8384;47.996;7.786;2023-08-12T06:28:16;3.43;;;3.13;;
16543;SDS011;8384;47.996;7.786;2023-08-12T06:30:44;2.97;;;2.73;;
16543;SDS011;8384;47.996;7.786;2023-08-12T06:33:10;3.97;;;2.80;;
16543;SDS011;8384;47.996;7.786;2023-08-12T06:35:36;2.77;;;2.57;;
16543;SDS011;8384;47.996;7.786;2023-08-12T06:38:01;3.03;;;2.77;;
16543;SDS011;8384;47.996;7.786;2023-08-12T06:40:26;3.10;;;2.80;;
16543;SDS011;8384;47.996;7.786;2023-08-12T06:42:52;3.03;;;2.73;;
16543;SDS011;8384;47.996;7.786;2023-08-12T06:45:18;3.20;;;2.90;;
16543;SDS011;8384;47.996;7.786;2023-08-12T06:47:43;3.40;;;3.10;;
16543;SDS011;8384;47.996;7.786;2023-08-12T06:50:08;3.40;;;3.10;;
16543;SDS011;8384;47.996;7.786;2023-08-12T06:52:34;5.33;;;3.27;;
16543;SDS011;8384;47.996;7.786;2023-08-12T06:54:59;2.97;;;2.77;;
16543;SDS011;8384;47.996;7.786;2023-08-12T06:57:24;4.83;;;3.57;;
16543;SDS011;8384;47.996;7.786;2023-08-12T06:59:49;2.80;;;2.60;;
16543;SDS011;8384;47.996;7.786;2023-08-12T07:02:15;3.20;;;2.90;;
16543;SDS011;8384;47.996;7.786;2023-08-12T07:04:40;3.93;;;3.17;;
16543;SDS011;8384;47.996;7.786;2023-08-12T07:07:05;3.80;;;3.03;;
16543;SDS011;8384;47.996;7.786;2023-08-12T07:09:30;3.20;;;2.87;;
16543;SDS011;8384;47.996;7.786;2023-08-12T07:11:56;3.57;;;3.23;;
16543;SDS011;8384;47.996;7.786;2023-08-12T07:14:21;3.23;;;2.80;;
16543;SDS011;8384;47.996;7.786;2023-08-12T07:16:47;3.47;;;3.17;;
16543;SDS011;8384;47.996;7.786;2023-08-12T07:19:12;2.93;;;2.73;;
16543;SDS011;8384;47.996;7.786;2023-08-12T07:21:37;4.17;;;3.77;;
16543;SDS011;8384;47.996;7.786;2023-08-12T07:24:03;3.63;;;2.90;;
16543;SDS011;8384;47.996;7.786;2023-08-12T07:26:28;3.83;;;3.20;;
16543;SDS011;8384;47.996;7.786;2023-08-12T07:28:53;3.17;;;2.87;;
16543;SDS011;8384;47.996;7.786;2023-08-12T07:31:19;3.33;;;3.00;;
16543;SDS011;8384;47.996;7.786;2023-08-12T07:33:44;3.17;;;2.97;;
16543;SDS011;8384;47.996;7.786;2023-08-12T07:36:09;3.20;;;2.90;;
16543;SDS011;8384;47.996;7.786;2023-08-12T07:38:34;4.27;;;3.03;;
16543;SDS011;8384;47.996;7.786;2023-08-12T07:41:00;3.40;;;3.10;;
16543;SDS011;8384;47.996;7.786;2023-08-12T07:43:25;3.60;;;3.30;;
16543;SDS011;8384;47.996;7.786;2023-08-12T07:45:51;3.23;;;3.00;;
16543;SDS011;8384;47.996;7.786;2023-08-12T07:48:17;3.90;;;3.17;;
16543;SDS011;8384;47.996;7.786;2023-08-12T07:50:43;3.13;;;2.83;;
16543;SDS011;8384;47.996;7.786;2023-08-12T07:53:08;3.80;;;3.10;;
16543;SDS011;8384;47.996;7.786;2023-08-12T07:55:34;3.30;;;3.03;;
16543;SDS011;8384;47.996;7.786;2023-08-12T07:57:59;3.23;;;2.80;;
16543;SDS011;8384;47.996;7.786;2023-08-12T08:00:25;4.43;;;3.30;;
16543;SDS011;8384;47.996;7.786;2023-08-12T08:02:50;3.83;;;3.53;;
16543;SDS011;8384;47.996;7.786;2023-08-12T08:05:15;4.00;;;3.70;;
16543;SDS011;8384;47.996;7.786;2023-08-12T08:07:41;4.13;;;3.53;;
16543;SDS011;8384;47.996;7.786;2023-08-12T08:10:06;4.17;;;3.83;;
16543;SDS011;8384;47.996;7.786;2023-08-12T08:12:31;4.90;;;4.23;;
16543;SDS011;8384;47.996;7.786;2023-08-12T08:14:57;4.83;;;4.13;;
16543;SDS011;8384;47.996;7.786;2023-08-12T08:17:22;4.40;;;4.00;;
16543;SDS011;8384;47.996;7.786;2023-08-12T08:19:47;6.03;;;4.60;;
16543;SDS011;8384;47.996;7.786;2023-08-12T08:22:13;5.20;;;4.63;;
16543;SDS011;8384;47.996;7.786;2023-08-12T08:24:38;4.00;;;3.70;;
16543;SDS011;8384;47.996;7.786;2023-08-12T08:27:03;4.50;;;4.07;;
16543;SDS011;8384;47.996;7.786;2023-08-12T08:29:29;4.03;;;3.63;;
16543;SDS011;8384;47.996;7.786;2023-08-12T08:31:54;4.27;;;3.67;;
16543;SDS011;8384;47.996;7.786;2023-08-12T08:34:20;4.23;;;3.83;;
16543;SDS011;8384;47.996;7.786;2023-08-12T08:36:46;6.20;;;3.70;;
16543;SDS011;8384;47.996;7.786;2023-08-12T08:39:11;4.20;;;3.87;;
16543;SDS011;8384;47.996;7.786;2023-08-12T08:41:38;5.43;;;3.70;;
16543;SDS011;8384;47.996;7.786;2023-08-12T08:44:06;4.50;;;4.10;;
16543;SDS011;8384;47.996;7.786;2023-08-12T08:46:33;4.73;;;3.67;;
16543;SDS011;8384;47.996;7.786;2023-08-12T08:48:58;3.80;;;3.50;;
16543;SDS011;8384;47.996;7.786;2023-08-12T08:51:25;4.90;;;3.77;;
16543;SDS011;8384;47.996;7.786;2023-08-12T08:53:52;5.87;;;3.80;;
16543;SDS011;8384;47.996;7.786;2023-08-12T08:56:19;4.33;;;3.90;;
16543;SDS011;8384;47.996;7.786;2023-08-12T08:58:46;6.27;;;3.70;;
16543;SDS011;8384;47.996;7.786;2023-08-12T09:01:11;4.33;;;3.47;;
16543;SDS011;8384;47.996;7.786;2023-08-12T09:03:37;3.93;;;3.57;;
16543;SDS011;8384;47.996;7.786;2023-08-12T09:06:03;4.57;;;3.60;;
16543;SDS011;8384;47.996;7.786;2023-08-12T09:08:29;3.60;;;3.30;;
16543;SDS011;8384;47.996;7.786;2023-08-12T09:10:57;4.97;;;3.33;;
16543;SDS011;8384;47.996;7.786;2023-08-12T09:13:24;3.73;;;3.43;;
16543;SDS011;8384;47.996;7.786;2023-08-12T09:15:50;4.37;;;3.30;;
16543;SDS011;8384;47.996;7.786;2023-08-12T09:18:15;4.47;;;3.83;;
16543;SDS011;8384;47.996;7.786;2023-08-12T09:20:41;5.87;;;3.57;;
16543;SDS011;8384;47.996;7.786;2023-08-12T09:23:08;4.80;;;3.83;;
16543;SDS011;8384;47.996;7.786;2023-08-12T09:25:35;4.30;;;4.00;;
16543;SDS011;8384;47.996;7.786;2023-08-12T09:28:00;4.87;;;3.90;;
16543;SDS011;8384;47.996;7.786;2023-08-12T09:30:29;5.47;;;4.33;;
16543;SDS011;8384;47.996;7.786;2023-08-12T09:32:59;5.10;;;3.77;;
16543;SDS011;8384;47.996;7.786;2023-08-12T09:35:36;4.37;;;4.03;;
16543;SDS011;8384;47.996;7.786;2023-08-12T09:38:06;5.27;;;4.27;;
16543;SDS011;8384;47.996;7.786;2023-08-12T09:40:33;4.23;;;3.87;;
16543;SDS011;8384;47.996;7.786;2023-08-12T09:43:00;4.40;;;3.67;;
16543;SDS011;8384;47.996;7.786;2023-08-12T09:45:26;5.30;;;4.67;;
16543;SDS011;8384;47.996;7.786;2023-08-12T09:47:52;5.17;;;4.23;;
16543;SDS011;8384;47.996;7.786;2023-08-12T09:50:21;5.17;;;3.60;;
16543;SDS011;8384;47.996;7.786;2023-08-12T09:52:51;4.47;;;3.90;;
16543;SDS011;8384;47.996;7.786;2023-08-12T09:55:18;6.37;;;4.07;;
16543;SDS011;8384;47.996;7.786;2023-08-12T09:57:47;4.20;;;3.80;;
16543;SDS011;8384;47.996;7.786;2023-08-12T10:00:13;5.23;;;4.10;;
16543;SDS011;8384;47.996;7.786;2023-08-12T10:02:44;4.27;;;3.97;;
16543;SDS011;8384;47.996;7.786;2023-08-12T10:05:15;4.10;;;3.70;;
16543;SDS011;8384;47.996;7.786;2023-08-12T10:07:45;7.23;;;4.03;;
16543;SDS011;8384;47.996;7.786;2023-08-12T10:10:11;4.30;;;3.60;;
16543;SDS011;8384;47.996;7.786;2023-08-12T10:12:37;3.67;;;3.03;;
16543;SDS011;8384;47.996;7.786;2023-08-12T10:15:04;3.87;;;3.37;;
16543;SDS011;8384;47.996;7.786;2023-08-12T10:17:30;5.57;;;3.33;;
16543;SDS011;8384;47.996;7.786;2023-08-12T10:19:57;5.03;;;3.63;;
16543;SDS011;8384;47.996;7.786;2023-08-12T10:22:24;3.20;;;3.00;;
16543;SDS011;8384;47.996;7.786;2023-08-12T10:25:02;3.37;;;3.07;;
16543;SDS011;8384;47.996;7.786;2023-08-12T10:27:29;3.83;;;2.97;;
16543;SDS011;8384;47.996;7.786;2023-08-12T10:29:57;5.43;;;3.00;;
16543;SDS011;8384;47.996;7.786;2023-08-12T10:32:23;4.60;;;3.10;;
16543;SDS011;8384;47.996;7.786;2023-08-12T10:34:55;3.97;;;3.17;;
16543;SDS011;8384;47.996;7.786;2023-08-12T10:37:23;4.53;;;2.80;;
16543;SDS011;8384;47.996;7.786;2023-08-12T10:39:49;3.40;;;3.10;;
16543;SDS011;8384;47.996;7.786;2023-08-12T10:42:37;3.63;;;3.00;;
16543;SDS011;8384;47.996;7.786;2023-08-12T10:45:09;3.10;;;2.83;;
16543;SDS011;8384;47.996;7.786;2023-08-12T10:48:19;3.03;;;2.70;;
16543;SDS011;8384;47.996;7.786;2023-08-12T10:50:27;2.93;;;2.60;;
16543;SDS011;8384;47.996;7.786;2023-08-12T10:52:54;3.10;;;2.80;;
16543;SDS011;8384;47.996;7.786;2023-08-12T10:55:20;4.87;;;2.47;;
16543;SDS011;8384;47.996;7.786;2023-08-12T10:57:47;3.53;;;2.90;;
16543;SDS011;8384;47.996;7.786;2023-08-12T11:00:23;3.27;;;2.80;;
16543;SDS011;8384;47.996;7.786;2023-08-12T11:02:50;2.80;;;2.60;;
16543;SDS011;8384;47.996;7.786;2023-08-12T11:05:17;3.57;;;2.50;;
16543;SDS011;8384;47.996;7.786;2023-08-12T11:07:47;5.43;;;2.47;;
16543;SDS011;8384;47.996;7.786;2023-08-12T11:10:17;3.70;;;2.60;;
16543;SDS011;8384;47.996;7.786;2023-08-12T11:15:16;5.60;;;3.07;;
16543;SDS011;8384;47.996;7.786;2023-08-12T11:17:41;4.47;;;3.47;;
16543;SDS011;8384;47.996;7.786;2023-08-12T11:20:10;4.47;;;3.73;;
16543;SDS011;8384;47.996;7.786;2023-08-12T11:22:37;4.73;;;3.60;;
16543;SDS011;8384;47.996;7.786;2023-08-12T11:25:05;4.43;;;3.60;;
16543;SDS011;8384;47.996;7.786;2023-08-12T11:27:39;4.40;;;4.00;;
16543;SDS011;8384;47.996;7.786;2023-08-12T11:30:06;5.80;;;4.10;;
16543;SDS011;8384;47.996;7.786;2023-08-12T11:32:32;4.60;;;4.00;;
16543;SDS011;8384;47.996;7.786;2023-08-12T11:34:57;4.43;;;3.83;;
16543;SDS011;8384;47.996;7.786;2023-08-12T11:37:23;4.70;;;3.90;;
16543;SDS011;8384;47.996;7.786;2023-08-12T11:39:51;5.90;;;3.90;;
16543;SDS011;8384;47.996;7.786;2023-08-12T11:42:17;5.83;;;4.20;;
16543;SDS011;8384;47.996;7.786;2023-08-12T11:44:42;6.97;;;4.83;;
16543;SDS011;8384;47.996;7.786;2023-08-12T11:47:07;5.33;;;4.60;;
16543;SDS011;8384;47.996;7.786;2023-08-12T11:49:33;6.33;;;4.67;;
16543;SDS011;8384;47.996;7.786;2023-08-12T11:51:58;5.53;;;3.97;;
16543;SDS011;8384;47.996;7.786;2023-08-12T11:54:24;5.03;;;4.10;;
16543;SDS011;8384;47.996;7.786;2023-08-12T11:56:50;4.37;;;3.90;;
16543;SDS011;8384;47.996;7.786;2023-08-12T11:59:15;4.60;;;3.90;;
16543;SDS011;8384;47.996;7.786;2023-08-12T12:01:40;4.40;;;4.00;;
16543;SDS011;8384;47.996;7.786;2023-08-12T12:04:06;5.23;;;3.53;;
16543;SDS011;8384;47.996;7.786;2023-08-12T12:06:40;4.83;;;4.10;;
16543;SDS011;8384;47.996;7.786;2023-08-12T12:09:06;4.83;;;4.23;;
16543;SDS011;8384;47.996;7.786;2023-08-12T12:11:37;5.03;;;3.87;;
16543;SDS011;8384;47.996;7.786;2023-08-12T12:14:03;4.03;;;3.60;;
16543;SDS011;8384;47.996;7.786;2023-08-12T12:16:41;4.30;;;3.60;;
16543;SDS011;8384;47.996;7.786;2023-08-12T12:19:19;5.53;;;3.73;;
16543;SDS011;8384;47.996;7.786;2023-08-12T12:21:46;4.43;;;3.47;;
16543;SDS011;8384;47.996;7.786;2023-08-12T12:24:14;3.67;;;3.17;;
16543;SDS011;8384;47.996;7.786;2023-08-12T12:26:40;5.87;;;3.47;;
16543;SDS011;8384;47.996;7.786;2023-08-12T12:29:06;3.50;;;3.20;;
16543;SDS011;8384;47.996;7.786;2023-08-12T12:31:33;4.77;;;3.10;;
16543;SDS011;8384;47.996;7.786;2023-08-12T12:33:59;4.70;;;3.43;;
16543;SDS011;8384;47.996;7.786;2023-08-12T12:36:25;4.60;;;2.93;;
16543;SDS011;8384;47.996;7.786;2023-08-12T12:38:51;4.40;;;3.40;;
16543;SDS011;8384;47.996;7.786;2023-08-12T12:41:16;2.83;;;2.63;;
16543;SDS011;8384;47.996;7.786;2023-08-12T12:43:42;4.67;;;2.97;;
16543;SDS011;8384;47.996;7.786;2023-08-12T12:46:07;4.63;;;3.20;;
16543;SDS011;8384;47.996;7.786;2023-08-12T12:48:32;4.00;;;3.30;;
16543;SDS011;8384;47.996;7.786;2023-08-12T12:50:58;4.40;;;4.00;;
16543;SDS011;8384;47.996;7.786;2023-08-12T12:53:23;4.07;;;3.20;;
16543;SDS011;8384;47.996;7.786;2023-08-12T12:55:48;3.77;;;3.40;;
16543;SDS011;8384;47.996;7.786;2023-08-12T12:58:14;3.60;;;3.30;;
16543;SDS011;8384;47.996;7.786;2023-08-12T13:00:39;3.77;;;3.13;;
16543;SDS011;8384;47.996;7.786;2023-08-12T13:03:04;3.93;;;3.27;;
16543;SDS011;8384;47.996;7.786;2023-08-12T13:05:30;4.33;;;3.20;;
16543;SDS011;8384;47.996;7.786;2023-08-12T13:07:55;3.50;;;3.20;;
16543;SDS011;8384;47.996;7.786;2023-08-12T13:10:20;3.57;;;3.23;;
16543;SDS011;8384;47.996;7.786;2023-08-12T13:12:46;3.17;;;2.97;;
16543;SDS011;8384;47.996;7.786;2023-08-12T13:15:11;3.53;;;3.23;;
16543;SDS011;8384;47.996;7.786;2023-08-12T13:17:36;5.10;;;3.23;;
16543;SDS011;8384;47.996;7.786;2023-08-12T13:20:02;3.40;;;3.10;;
16543;SDS011;8384;47.996;7.786;2023-08-12T13:22:28;4.70;;;2.90;;
16543;SDS011;8384;47.996;7.786;2023-08-12T13:24:53;3.40;;;3.20;;
16543;SDS011;8384;47.996;7.786;2023-08-12T13:27:18;3.23;;;2.93;;
16543;SDS011;8384;47.996;7.786;2023-08-12T13:29:43;3.80;;;3.40;;
16543;SDS011;8384;47.996;7.786;2023-08-12T13:32:09;4.97;;;3.50;;
16543;SDS011;8384;47.996;7.786;2023-08-12T13:34:34;3.30;;;3.00;;
16543;SDS011;8384;47.996;7.786;2023-08-12T13:37:00;3.47;;;3.13;;
16543;SDS011;8384;47.996;7.786;2023-08-12T13:39:25;3.53;;;3.23;;
16543;SDS011;8384;47.996;7.786;2023-08-12T13:41:51;3.30;;;3.00;;
16543;SDS011;8384;47.996;7.786;2023-08-12T13:44:16;3.60;;;3.30;;
16543;SDS011;8384;47.996;7.786;2023-08-12T13:46:41;3.30;;;3.00;;
16543;SDS011;8384;47.996;7.786;2023-08-12T13:49:07;3.10;;;2.90;;
16543;SDS011;8384;47.996;7.786;2023-08-12T13:51:32;3.83;;;3.43;;
16543;SDS011;8384;47.996;7.786;2023-08-12T13:53:57;3.40;;;3.10;;
16543;SDS011;8384;47.996;7.786;2023-08-12T13:56:22;3.93;;;3.37;;
16543;SDS011;8384;47.996;7.786;2023-08-12T13:58:48;4.13;;;3.70;;
16543;SDS011;8384;47.996;7.786;2023-08-12T14:01:13;3.63;;;3.30;;
16543;SDS011;8384;47.996;7.786;2023-08-12T14:03:38;3.53;;;3.23;;
16543;SDS011;8384;47.996;7.786;2023-08-12T14:06:03;4.17;;;3.17;;
16543;SDS011;8384;47.996;7.786;2023-08-12T14:08:29;3.60;;;3.07;;
16543;SDS011;8384;47.996;7.786;2023-08-12T14:10:55;4.33;;;3.50;;
16543;SDS011;8384;47.996;7.786;2023-08-12T14:13:20;3.80;;;3.00;;
16543;SDS011;8384;47.996;7.786;2023-08-12T14:15:45;3.50;;;3.20;;
16543;SDS011;8384;47.996;7.786;2023-08-12T14:18:10;4.30;;;3.30;;
16543;SDS011;8384;47.996;7.786;2023-08-12T14:20:36;5.10;;;3.60;;
16543;SDS011;8384;47.996;7.786;2023-08-12T14:23:01;5.57;;;3.60;;
16543;SDS011;8384;47.996;7.786;2023-08-12T14:25:26;4.23;;;3.50;;
16543;SDS011;8384;47.996;7.786;2023-08-12T14:27:51;5.03;;;3.30;;
16543;SDS011;8384;47.996;7.786;2023-08-12T14:30:22;5.17;;;3.30;;
16543;SDS011;8384;47.996;7.786;2023-08-12T14:32:48;3.63;;;3.27;;
16543;SDS011;8384;47.996;7.786;2023-08-12T14:35:14;4.50;;;3.63;;
16543;SDS011;8384;47.996;7.786;2023-08-12T14:37:39;4.50;;;3.30;;
16543;SDS011;8384;47.996;7.786;2023-08-12T14:40:04;3.80;;;3.40;;
16543;SDS011;8384;47.996;7.786;2023-08-12T14:42:30;4.17;;;2.97;;
16543;SDS011;8384;47.996;7.786;2023-08-12T14:44:56;4.47;;;3.30;;
16543;SDS011;8384;47.996;7.786;2023-08-12T14:47:21;3.70;;;3.20;;
16543;SDS011;8384;47.996;7.786;2023-08-12T14:49:46;3.57;;;3.10;;
16543;SDS011;8384;47.996;7.786;2023-08-12T14:52:15;3.60;;;3.30;;
16543;SDS011;8384;47.996;7.786;2023-08-12T14:54:41;4.07;;;2.90;;
16543;SDS011;8384;47.996;7.786;2023-08-12T14:57:07;4.63;;;3.40;;
16543;SDS011;8384;47.996;7.786;2023-08-12T14:59:32;5.17;;;3.37;;